Etusivu
METAR-TAF:

METAR-TAF

Lentoasemat :

Ilo, Peru

Leveyspiiri: 17-41-45S, Pituuspiiri: 071-20-35W, korkeus merenpinnasta: 22 m

Tämänhetkinen sää

Tämä raportti tehtiin 7 tuntia ja 9 minuuttia sitten, kello 21.00 UTC
Tuuli 13 kn etelästä/kaakosta
Lämpötila 23°C
Kosteus 69%
Ilmanpaine 1011 hPa
Näkyvyys 10 km tai enemmän
ei pilviä alle 1500 m:ssä eikä cumulonimbus-pilviä

METAR: SPLO 232100Z 15013KT CAVOK 23/17 Q1011 RMK TX24.6 PP000

Aika: 23:09 (04:09 UTC)

Sääennuste

Tämä raportti tehtiin 11 tuntia ja 9 minuuttia sitten, kello 17.00 UTC
Ennuste voimassa 23. päivästä klo 18 UTC - 24. päivään klo 18 UTC
Tuuli 10 kn etelästä
Näkyvyys 10 km tai enemmän
Hajanaisia pilviä 4000 ft:n korkeudessa

TAF: SPLO 231700Z 2318/2418 17010KT 9999 SCT040 TX24/2319Z TN18/2410Z

Säähavainnot ja -ennusteet yli 4000 lentoasemalta (METAR- ja TAF-raportit).

Käytössä olevat sääasemat on merkitty karttaan keltaisilla ja punaisilla pisteillä.

Aseta hiiri pisteen päälle nähdäksesi sääaseman nimen.

Klikkaa sitten nähdäksesi säähavainnot ja -ennusteet.

Kartan vaihtaminen: klikkaa mustalla rastilla varustettuja vihreitä pisteitä, niin voit zoomata sisään; viivalla varustettua vihreää pistettä, niin voit zoomata ulos tai vihreitä nuolia, niin pääset viereisille kartoille.


METAR-TAF: